createdAt,value
2023-03-03T00:04:55.536Z,77.97
2023-03-03T00:09:57.980Z,78.22
2023-03-03T00:15:18.003Z,79.63
2023-03-03T00:20:38.425Z,80.61
2023-03-03T00:25:44.663Z,79.90
2023-03-03T00:30:46.406Z,78.16
2023-03-03T00:35:48.226Z,75.63
2023-03-03T00:40:52.370Z,74.58
2023-03-03T00:45:56.591Z,74.35
2023-03-03T00:51:30.093Z,76.53
2023-03-03T00:56:31.981Z,78.86
2023-03-03T01:01:33.733Z,79.83
2023-03-03T01:06:35.763Z,80.54
2023-03-03T01:11:37.508Z,80.68
2023-03-03T01:16:39.205Z,80.95
2023-03-03T01:21:40.978Z,81.20
2023-03-03T01:26:42.751Z,81.72
2023-03-03T01:31:44.593Z,81.65
2023-03-03T01:36:46.288Z,80.83
2023-03-03T01:41:48.525Z,79.66
2023-03-03T01:47:12.875Z,78.28
2023-03-03T01:52:36.463Z,78.41
2023-03-03T01:57:43.978Z,77.58
2023-03-03T02:02:46.944Z,77.42
2023-03-03T02:07:49.170Z,76.95
2023-03-03T02:12:53.990Z,77.09
2023-03-03T02:18:00.685Z,76.76
2023-03-03T02:23:18.051Z,76.43
2023-03-03T02:28:20.736Z,77.00
2023-03-03T02:33:24.458Z,76.94
2023-03-03T02:38:29.158Z,75.57
2023-03-03T02:43:41.648Z,75.67
2023-03-03T02:48:43.670Z,75.90
2023-03-03T02:53:45.765Z,77.09
2023-03-03T02:58:47.540Z,78.43
2023-03-03T03:03:49.640Z,78.49
2023-03-03T03:08:54.167Z,77.38
2023-03-03T03:13:56.212Z,77.20
2023-03-03T03:18:59.824Z,77.79
2023-03-03T03:24:02.194Z,77.36
2023-03-03T03:29:05.151Z,77.31
2023-03-03T03:34:07.760Z,77.92
2023-03-03T03:39:09.597Z,78.30
2023-03-03T03:44:14.061Z,78.19
2023-03-03T03:49:16.005Z,78.59
2023-03-03T03:54:17.807Z,78.34
2023-03-03T03:59:20.839Z,76.62
2023-03-03T04:04:22.711Z,76.19
2023-03-03T04:09:25.260Z,75.60
2023-03-03T04:14:27.395Z,76.27
2023-03-03T04:19:29.932Z,77.67
2023-03-03T04:24:31.764Z,78.34
2023-03-03T04:29:33.795Z,78.51
2023-03-03T04:34:36.324Z,78.24
2023-03-03T04:39:39.067Z,77.43
2023-03-03T04:44:40.873Z,77.38
2023-03-03T04:49:42.965Z,78.65
2023-03-03T04:54:44.924Z,78.80
2023-03-03T04:59:46.818Z,78.35
2023-03-03T05:06:31.666Z,79.13
2023-03-03T05:11:33.299Z,80.85
2023-03-03T05:16:34.953Z,82.15
2023-03-03T05:21:37.837Z,83.73
2023-03-03T05:26:40.838Z,84.71
2023-03-03T05:31:45.495Z,84.62
2023-03-03T05:36:47.458Z,84.23
2023-03-03T05:41:49.073Z,83.80
2023-03-03T05:46:50.802Z,83.90
2023-03-03T05:51:52.453Z,84.09
2023-03-03T05:56:54.165Z,84.10
2023-03-03T06:01:55.926Z,84.06
2023-03-03T06:06:57.941Z,83.65
2023-03-03T06:11:59.685Z,83.41
2023-03-03T06:17:01.439Z,82.80
2023-03-03T06:22:03.613Z,83.00
2023-03-03T06:27:07.849Z,82.87
2023-03-03T06:32:09.745Z,82.52
2023-03-03T06:37:11.605Z,82.26
2023-03-03T06:42:13.484Z,82.47
2023-03-03T06:47:15.197Z,82.67
2023-03-03T06:52:22.019Z,83.41
2023-03-03T06:57:28.219Z,83.78
2023-03-03T07:02:29.898Z,83.53
2023-03-03T07:07:31.809Z,83.26
2023-03-03T07:12:35.538Z,83.38
2023-03-03T07:17:41.885Z,83.60
2023-03-03T07:22:43.641Z,83.67
2023-03-03T07:27:45.327Z,83.32
2023-03-03T07:32:47.485Z,82.80
2023-03-03T07:37:49.351Z,83.17
2023-03-03T07:42:51.828Z,83.63
2023-03-03T07:48:19.261Z,83.43
2023-03-03T07:53:34.959Z,82.77
2023-03-03T07:58:42.064Z,82.53
2023-03-03T08:03:46.824Z,82.84
2023-03-03T08:09:21.618Z,83.11
2023-03-03T08:14:41.130Z,83.58
2023-03-03T08:19:42.832Z,83.59
2023-03-03T08:24:44.642Z,83.56
2023-03-03T08:29:48.439Z,83.52
2023-03-03T08:34:50.328Z,83.18
2023-03-03T08:39:52.137Z,83.00
2023-03-03T08:44:53.726Z,83.85
2023-03-03T08:49:55.421Z,84.53
2023-03-03T08:54:57.274Z,84.49
2023-03-03T08:59:59.018Z,84.24
2023-03-03T09:05:01.191Z,83.86
2023-03-03T09:10:04.811Z,83.32
2023-03-03T09:15:19.041Z,82.85
2023-03-03T09:20:44.159Z,83.40
2023-03-03T09:25:47.208Z,83.41
2023-03-03T09:30:51.483Z,83.22
2023-03-03T09:36:03.388Z,82.88
2023-03-03T09:41:05.080Z,82.31
2023-03-03T09:46:25.848Z,81.98
2023-03-03T09:51:49.335Z,82.23
2023-03-03T09:57:04.171Z,82.60
2023-03-03T10:02:33.723Z,82.58
2023-03-03T10:07:50.881Z,82.68
2023-03-03T10:13:20.025Z,82.44
2023-03-03T10:18:42.593Z,82.45
2023-03-03T10:23:59.074Z,82.09
2023-03-03T10:29:22.622Z,82.13
2023-03-03T10:34:43.456Z,82.40
2023-03-03T10:39:48.169Z,82.34
2023-03-03T10:45:08.088Z,81.93
2023-03-03T10:50:35.261Z,81.47
2023-03-03T10:56:11.126Z,81.41
2023-03-03T11:01:34.716Z,81.49
2023-03-03T11:07:07.132Z,81.83
2023-03-03T11:12:15.185Z,82.13
2023-03-03T11:17:30.467Z,82.29
2023-03-03T11:23:11.024Z,82.02
2023-03-03T11:28:19.437Z,81.29
2023-03-03T11:33:36.008Z,81.23
2023-03-03T11:39:03.667Z,81.37
2023-03-03T11:44:19.226Z,81.11
2023-03-03T11:49:38.577Z,80.75
2023-03-03T11:54:54.860Z,80.51
2023-03-03T12:00:20.542Z,80.30
2023-03-03T12:05:31.289Z,79.63
2023-03-03T12:10:45.285Z,79.30
2023-03-03T12:15:49.672Z,79.87
2023-03-03T12:21:16.356Z,79.95
2023-03-03T12:26:32.599Z,79.97
2023-03-03T12:32:42.484Z,79.68
2023-03-03T12:38:28.928Z,78.86
2023-03-03T12:43:44.183Z,78.97
2023-03-03T12:48:47.623Z,79.33
2023-03-03T12:54:14.567Z,79.34
2023-03-03T12:59:22.037Z,78.86
2023-03-03T13:04:35.119Z,78.35
2023-03-03T13:09:58.115Z,77.10
2023-03-03T13:15:18.502Z,76.98
2023-03-03T13:20:45.197Z,77.44
2023-03-03T13:26:00.068Z,77.77
2023-03-03T13:31:32.225Z,77.44
2023-03-03T13:36:59.163Z,76.42
2023-03-03T13:42:06.685Z,76.97
2023-03-03T13:47:14.699Z,76.62
2023-03-03T13:52:22.552Z,75.65
2023-03-03T13:57:45.080Z,75.49
2023-03-03T14:02:58.825Z,75.15
2023-03-03T14:08:08.326Z,74.59
2023-03-03T14:13:13.675Z,74.54
2023-03-03T14:18:39.220Z,74.44
2023-03-03T14:23:48.223Z,74.45
2023-03-03T14:28:53.046Z,74.55
2023-03-03T14:34:16.335Z,75.17
2023-03-03T14:39:39.080Z,74.99
2023-03-03T14:45:00.717Z,75.19
2023-03-03T14:50:36.801Z,75.50
2023-03-03T14:55:41.279Z,75.55
2023-03-03T15:00:43.088Z,76.04
2023-03-03T15:05:52.992Z,76.27
2023-03-03T15:10:54.705Z,76.28
2023-03-03T15:15:59.162Z,77.08
2023-03-03T15:21:12.456Z,77.45
2023-03-03T15:26:35.685Z,77.52
2023-03-03T15:32:03.515Z,77.61
2023-03-03T15:37:24.753Z,78.03
2023-03-03T15:42:36.327Z,78.48
2023-03-03T15:47:56.806Z,78.85
2023-03-03T15:53:34.127Z,79.06
2023-03-03T15:59:20.007Z,79.20
2023-03-03T16:04:26.209Z,79.47
2023-03-03T16:09:39.800Z,79.48
2023-03-03T16:15:06.360Z,79.72
2023-03-03T16:20:33.458Z,79.99
2023-03-03T16:26:00.176Z,80.62
2023-03-03T16:31:13.243Z,81.14
2023-03-03T16:36:17.800Z,81.32
2023-03-03T16:41:26.880Z,81.39
2023-03-03T16:46:33.800Z,81.11
2023-03-03T16:51:46.687Z,81.34
2023-03-03T16:57:19.617Z,81.31
2023-03-03T17:03:00.503Z,80.97
2023-03-03T17:08:39.445Z,80.45
2023-03-03T17:13:59.725Z,80.42
2023-03-03T17:19:28.412Z,80.91
2023-03-03T17:24:45.622Z,81.43
2023-03-03T17:29:55.334Z,81.68
2023-03-03T17:35:19.930Z,81.40
2023-03-03T17:40:33.157Z,81.33
2023-03-03T17:45:41.007Z,81.33
2023-03-03T17:51:14.148Z,81.42
2023-03-03T17:56:22.955Z,81.37
2023-03-03T18:01:40.568Z,81.35
2023-03-03T18:07:00.900Z,81.31
2023-03-03T18:12:23.945Z,81.02
2023-03-03T18:17:38.006Z,80.28
2023-03-03T18:22:45.826Z,79.96
2023-03-03T18:28:07.490Z,80.39
2023-03-03T18:33:13.005Z,80.54
2023-03-03T18:38:17.985Z,80.60
2023-03-03T18:43:45.069Z,80.32
2023-03-03T18:48:50.500Z,79.82
2023-03-03T18:54:07.509Z,79.28
2023-03-03T18:59:09.774Z,79.03
2023-03-03T19:04:26.323Z,78.83
2023-03-03T19:09:52.504Z,78.86
2023-03-03T19:14:54.401Z,78.79
2023-03-03T19:20:18.169Z,78.62
2023-03-03T19:25:28.625Z,78.63
2023-03-03T19:30:39.853Z,78.65
2023-03-03T19:36:03.124Z,78.70
2023-03-03T19:41:37.774Z,78.99
2023-03-03T19:47:13.205Z,79.14
2023-03-03T19:52:29.913Z,79.29
2023-03-03T19:58:05.938Z,79.56
2023-03-03T20:03:48.003Z,79.88
2023-03-03T20:09:04.733Z,80.09
2023-03-03T20:14:21.622Z,80.15
2023-03-03T20:19:42.237Z,80.51
2023-03-03T20:25:06.030Z,80.59
2023-03-03T20:30:38.275Z,80.91
2023-03-03T20:35:51.367Z,80.96
2023-03-03T20:41:23.845Z,80.82
2023-03-03T20:46:47.643Z,80.63
2023-03-03T20:52:01.757Z,80.58
2023-03-03T20:57:23.131Z,80.72
2023-03-03T21:02:38.648Z,80.87
2023-03-03T21:08:03.673Z,80.92
2023-03-03T21:13:47.636Z,81.06
2023-03-03T21:18:57.613Z,80.88
2023-03-03T21:23:59.410Z,80.59
2023-03-03T21:29:03.510Z,80.28
2023-03-03T21:34:18.314Z,79.96
2023-03-03T21:39:31.312Z,79.70
2023-03-03T21:44:32.992Z,79.69
2023-03-03T21:49:34.597Z,80.05
2023-03-03T21:54:36.486Z,80.17
2023-03-03T21:59:38.872Z,80.09
2023-03-03T22:04:41.385Z,80.12
2023-03-03T22:09:43.670Z,80.21
2023-03-03T22:14:51.737Z,80.22
2023-03-03T22:19:55.625Z,80.09
2023-03-03T22:24:57.346Z,79.88
2023-03-03T22:29:59.038Z,79.50
2023-03-03T22:35:00.885Z,79.12
2023-03-03T22:40:02.728Z,78.77
2023-03-03T22:45:24.475Z,78.81
2023-03-03T22:50:28.220Z,78.89
2023-03-03T22:55:36.948Z,79.08
2023-03-03T23:00:39.291Z,78.99
2023-03-03T23:05:41.971Z,78.93
2023-03-03T23:10:43.741Z,78.86
2023-03-03T23:15:45.522Z,79.04
2023-03-03T23:20:47.368Z,79.52
2023-03-03T23:25:49.397Z,79.90
2023-03-03T23:30:52.320Z,80.17
2023-03-03T23:35:54.267Z,80.96
2023-03-03T23:40:56.010Z,81.40
2023-03-03T23:45:57.705Z,81.37
2023-03-03T23:51:01.389Z,81.26
2023-03-03T23:56:03.367Z,81.63
